Bloomfield, South Dakota
Current Conditions -  °F | °C
As of 2:55 PM on Thursday 27 Nov 2014 (Local Time) from KHON Reporting Station
Overcast Overcast  
Wind Chill: -1°   Ceiling: 4600
Heat Index: 14°   Visibility: 10mi
Dew Point:   Wind: 14mph
Humidity: 62%   Direction: 140°SE
Pressure: 30.24"   Gusts: 22mph
Location:  44.6749°N, 97.9169°W
Report Text: KHON 272055Z AUTO 14012G19KT 10SM BKN046 BKN100 OVC110 M10/M16 A3024 RMK AO2 SLP273 T11001161 56045
Loading
Personal Weather Stations






























Interactive Weather Map New forecast layout! Learn more

10-Day Weather Forecast

Advertisements
Track Severe Weather on mobile